Time,TemperatureF,DewpointF,PressureIn,WindDirection,WindDirectionDegrees,WindSpeedMPH,WindSpeedGustMPH,Humidity,HourlyPrecipIn,Conditions,Clouds,dailyrainin,SoftwareType,DateUTC
2014-02-09 00:00:00,74.0,71.8,30.13,ESE,120,0.0,0.0,93,0.00,,,0.00,Wunderground v.1.15,2014-02-09 05:00:00,
2014-02-09 00:02:00,74.0,71.8,30.13,ESE,120,0.0,0.0,93,0.00,,,0.00,Wunderground v.1.15,2014-02-09 05:02:00,
2014-02-09 00:06:00,73.9,71.7,30.13,ESE,119,0.0,0.0,93,0.00,,,0.00,Wunderground v.1.15,2014-02-09 05:06:00,
2014-02-09 00:07:00,73.9,71.7,30.13,ESE,119,0.0,0.0,93,0.00,,,0.00,Wunderground v.1.15,2014-02-09 05:07:00,
2014-02-09 00:08:00,73.9,71.7,30.13,ESE,120,0.0,0.0,93,0.00,,,0.00,Wunderground v.1.15,2014-02-09 05:08:00,
2014-02-09 00:10:00,73.8,71.6,30.13,ESE,119,0.0,0.0,93,0.00,,,0.00,Wunderground v.1.15,2014-02-09 05:10:00,
2014-02-09 00:17:00,73.6,71.4,30.13,ESE,119,0.0,0.0,93,0.00,,,0.00,Wunderground v.1.15,2014-02-09 05:17:00,
2014-02-09 00:22:00,73.5,71.4,30.13,ESE,120,0.0,0.0,93,0.00,,,0.00,Wunderground v.1.15,2014-02-09 05:22:00,
2014-02-09 00:28:00,73.4,71.3,30.12,ESE,120,0.0,0.0,93,0.00,,,0.00,Wunderground v.1.15,2014-02-09 05:28:00,
2014-02-09 00:34:00,73.3,71.5,30.13,ESE,120,0.0,0.0,94,0.00,,,0.00,Wunderground v.1.15,2014-02-09 05:34:00,
2014-02-09 00:40:00,73.3,71.5,30.13,ESE,119,0.0,0.0,94,0.00,,,0.00,Wunderground v.1.15,2014-02-09 05:40:00,
2014-02-09 00:45:00,73.5,72.0,30.13,ESE,120,0.0,0.0,95,0.00,,,0.00,Wunderground v.1.15,2014-02-09 05:45:00,
2014-02-09 00:51:00,73.5,72.0,30.12,ESE,120,0.0,0.0,95,0.00,,,0.00,Wunderground v.1.15,2014-02-09 05:51:00,
2014-02-09 00:56:00,73.4,71.6,30.12,ESE,120,0.0,0.0,94,0.00,,,0.00,Wunderground v.1.15,2014-02-09 05:56:00,
2014-02-09 01:02:00,73.5,72.0,30.13,ESE,120,0.0,0.0,95,0.00,,,0.00,Wunderground v.1.15,2014-02-09 06:02:00,
2014-02-09 01:08:00,73.8,72.6,30.12,ESE,120,0.0,0.0,96,0.00,,,0.00,Wunderground v.1.15,2014-02-09 06:08:00,
2014-02-09 01:13:00,73.8,72.3,30.12,ESE,120,0.0,0.0,95,0.00,,,0.00,Wunderground v.1.15,2014-02-09 06:13:00,
2014-02-09 01:18:00,73.6,72.1,30.12,ESE,120,0.0,0.0,95,0.00,,,0.00,Wunderground v.1.15,2014-02-09 06:18:00,
2014-02-09 01:23:00,73.6,72.1,30.12,ESE,120,0.0,0.0,95,0.00,,,0.00,Wunderground v.1.15,2014-02-09 06:23:00,
2014-02-09 01:28:00,73.5,72.0,30.12,ESE,119,0.0,0.0,95,0.00,,,0.00,Wunderground v.1.15,2014-02-09 06:28:00,
2014-02-09 01:34:00,73.7,72.5,30.11,ESE,119,0.0,0.0,96,0.00,,,0.00,Wunderground v.1.15,2014-02-09 06:34:00,
2014-02-09 01:39:00,73.8,72.6,30.11,ESE,119,0.0,0.0,96,0.00,,,0.00,Wunderground v.1.15,2014-02-09 06:39:00,
2014-02-09 01:45:00,73.8,72.6,30.11,ESE,119,0.0,0.0,96,0.00,,,0.00,Wunderground v.1.15,2014-02-09 06:45:00,
2014-02-09 01:50:00,73.8,72.6,30.11,ESE,120,0.0,0.0,96,0.00,,,0.00,Wunderground v.1.15,2014-02-09 06:50:00,
2014-02-09 01:56:00,73.9,72.7,30.11,ESE,119,0.0,0.0,96,0.00,,,0.00,Wunderground v.1.15,2014-02-09 06:56:00,
2014-02-09 02:02:00,74.0,72.8,30.10,ESE,120,0.0,0.0,96,0.00,,,0.00,Wunderground v.1.15,2014-02-09 07:02:00,
2014-02-09 02:08:00,74.0,72.8,30.10,ESE,119,0.0,0.0,96,0.00,,,0.00,Wunderground v.1.15,2014-02-09 07:08:00,
2014-02-09 02:14:00,74.0,72.5,30.10,ESE,120,0.0,0.0,95,0.00,,,0.00,Wunderground v.1.15,2014-02-09 07:14:00,
2014-02-09 02:19:00,73.9,72.7,30.10,ESE,120,0.0,0.0,96,0.00,,,0.00,Wunderground v.1.15,2014-02-09 07:19:00,
2014-02-09 02:25:00,73.9,72.4,30.10,ESE,120,0.0,0.0,95,0.00,,,0.00,Wunderground v.1.15,2014-02-09 07:25:00,
2014-02-09 02:32:00,73.8,72.3,30.10,ESE,120,0.0,0.0,95,0.00,,,0.00,Wunderground v.1.15,2014-02-09 07:32:00,
2014-02-09 02:38:00,73.9,72.7,30.10,ESE,119,0.0,0.0,96,0.00,,,0.00,Wunderground v.1.15,2014-02-09 07:38:00,
2014-02-09 02:43:00,74.0,72.8,30.10,ESE,120,0.0,0.0,96,0.00,,,0.00,Wunderground v.1.15,2014-02-09 07:43:00,
2014-02-09 02:49:00,74.0,72.5,30.09,ESE,120,0.0,0.0,95,0.00,,,0.00,Wunderground v.1.15,2014-02-09 07:49:00,
2014-02-09 02:55:00,74.0,72.5,30.09,ESE,119,0.0,0.0,95,0.00,,,0.00,Wunderground v.1.15,2014-02-09 07:55:00,
2014-02-09 03:02:00,73.9,72.4,30.09,ESE,120,0.0,0.0,95,0.00,,,0.00,Wunderground v.1.15,2014-02-09 08:02:00,
2014-02-09 03:08:00,73.8,72.3,30.08,ESE,120,0.0,0.0,95,0.00,,,0.00,Wunderground v.1.15,2014-02-09 08:08:00,
2014-02-09 03:14:00,73.7,72.2,30.09,ESE,119,0.0,0.0,95,0.00,,,0.00,Wunderground v.1.15,2014-02-09 08:14:00,
2014-02-09 03:19:00,73.7,72.2,30.08,ESE,120,0.0,0.0,95,0.00,,,0.00,Wunderground v.1.15,2014-02-09 08:19:00,
2014-02-09 03:25:00,73.5,72.0,30.08,ESE,120,0.0,0.0,95,0.00,,,0.00,Wunderground v.1.15,2014-02-09 08:25:00,
2014-02-09 03:32:00,73.5,72.0,30.08,ESE,120,0.0,0.0,95,0.00,,,0.00,Wunderground v.1.15,2014-02-09 08:32:00,
2014-02-09 03:38:00,73.5,72.0,30.08,ESE,119,0.0,0.0,95,0.00,,,0.00,Wunderground v.1.15,2014-02-09 08:38:00,
2014-02-09 03:43:00,73.5,72.0,30.08,ESE,120,0.0,0.0,95,0.00,,,0.00,Wunderground v.1.15,2014-02-09 08:43:00,
2014-02-09 03:48:00,73.4,71.9,30.08,ESE,120,0.0,0.0,95,0.00,,,0.00,Wunderground v.1.15,2014-02-09 08:48:00,
2014-02-09 03:54:00,73.4,71.9,30.08,ESE,119,0.0,0.0,95,0.00,,,0.00,Wunderground v.1.15,2014-02-09 08:54:00,
2014-02-09 03:59:00,73.4,71.9,30.08,ESE,119,0.0,0.0,95,0.00,,,0.00,Wunderground v.1.15,2014-02-09 08:59:00,
2014-02-09 04:04:00,73.4,71.9,30.08,ESE,120,0.0,0.0,95,0.00,,,0.00,Wunderground v.1.15,2014-02-09 09:04:00,
2014-02-09 04:09:00,73.4,71.9,30.08,ESE,119,0.0,0.0,95,0.00,,,0.00,Wunderground v.1.15,2014-02-09 09:09:00,
2014-02-09 04:14:00,73.4,71.9,30.07,ESE,120,0.0,0.0,95,0.00,,,0.00,Wunderground v.1.15,2014-02-09 09:14:00,
2014-02-09 04:19:00,73.3,71.8,30.08,ESE,120,0.0,0.0,95,0.00,,,0.00,Wunderground v.1.15,2014-02-09 09:19:00,
2014-02-09 04:25:00,73.2,71.7,30.08,ESE,120,0.0,0.0,95,0.00,,,0.00,Wunderground v.1.15,2014-02-09 09:25:00,
2014-02-09 04:32:00,73.3,71.8,30.08,ESE,120,0.0,0.0,95,0.00,,,0.00,Wunderground v.1.15,2014-02-09 09:32:00,
2014-02-09 04:37:00,73.4,71.9,30.08,ESE,120,0.0,0.0,95,0.00,,,0.00,Wunderground v.1.15,2014-02-09 09:37:00,
2014-02-09 04:43:00,73.4,71.9,30.08,ESE,120,0.0,0.0,95,0.00,,,0.00,Wunderground v.1.15,2014-02-09 09:43:00,
2014-02-09 04:49:00,73.4,71.9,30.08,ESE,120,0.0,0.0,95,0.00,,,0.00,Wunderground v.1.15,2014-02-09 09:49:00,
2014-02-09 04:54:00,73.4,71.9,30.08,ESE,119,0.0,0.0,95,0.00,,,0.00,Wunderground v.1.15,2014-02-09 09:54:00,
2014-02-09 05:00:00,73.3,71.8,30.08,ESE,119,0.0,0.0,95,0.00,,,0.00,Wunderground v.1.15,2014-02-09 10:00:00,
2014-02-09 05:05:00,73.3,71.8,30.08,ESE,120,0.0,0.0,95,0.00,,,0.00,Wunderground v.1.15,2014-02-09 10:05:00,
2014-02-09 05:11:00,73.3,71.8,30.08,ESE,119,0.0,0.0,95,0.00,,,0.00,Wunderground v.1.15,2014-02-09 10:11:00,
2014-02-09 05:17:00,73.3,71.8,30.08,ESE,120,0.0,0.0,95,0.00,,,0.00,Wunderground v.1.15,2014-02-09 10:17:00,
2014-02-09 05:22:00,73.2,71.7,30.09,ESE,119,0.0,0.0,95,0.00,,,0.00,Wunderground v.1.15,2014-02-09 10:22:00,
2014-02-09 05:28:00,73.3,71.8,30.08,ESE,119,0.0,0.0,95,0.00,,,0.00,Wunderground v.1.15,2014-02-09 10:28:00,
2014-02-09 05:33:00,73.4,71.9,30.09,ESE,119,0.0,0.0,95,0.00,,,0.00,Wunderground v.1.15,2014-02-09 10:33:00,
2014-02-09 05:39:00,73.3,71.8,30.08,ESE,120,0.0,0.0,95,0.00,,,0.00,Wunderground v.1.15,2014-02-09 10:39:00,
2014-02-09 05:45:00,73.2,71.7,30.09,ESE,119,0.0,0.0,95,0.00,,,0.00,Wunderground v.1.15,2014-02-09 10:45:00,
2014-02-09 05:50:00,73.1,71.6,30.09,ESE,120,0.0,0.0,95,0.00,,,0.00,Wunderground v.1.15,2014-02-09 10:50:00,
2014-02-09 05:55:00,73.2,71.7,30.09,ESE,119,0.0,0.0,95,0.00,,,0.00,Wunderground v.1.15,2014-02-09 10:55:00,
2014-02-09 06:02:00,73.3,71.8,30.09,ESE,120,0.0,0.0,95,0.00,,,0.00,Wunderground v.1.15,2014-02-09 11:02:00,
2014-02-09 06:08:00,73.3,71.8,30.09,ESE,120,0.0,0.0,95,0.00,,,0.00,Wunderground v.1.15,2014-02-09 11:08:00,
2014-02-09 06:13:00,73.4,71.9,30.09,ESE,120,0.0,0.0,95,0.00,,,0.00,Wunderground v.1.15,2014-02-09 11:13:00,
2014-02-09 06:18:00,73.5,72.0,30.09,ESE,120,0.0,0.0,95,0.00,,,0.00,Wunderground v.1.15,2014-02-09 11:18:00,
2014-02-09 06:24:00,73.5,72.0,30.09,ESE,120,0.0,0.0,95,0.00,,,0.00,Wunderground v.1.15,2014-02-09 11:24:00,
2014-02-09 06:29:00,73.5,72.0,30.09,ESE,119,0.0,0.0,95,0.00,,,0.00,Wunderground v.1.15,2014-02-09 11:29:00,
2014-02-09 06:35:00,73.5,72.0,30.09,ESE,120,0.0,0.0,95,0.00,,,0.00,Wunderground v.1.15,2014-02-09 11:35:00,
2014-02-09 06:40:00,73.6,72.1,30.10,ESE,120,0.0,0.0,95,0.00,,,0.00,Wunderground v.1.15,2014-02-09 11:40:00,
2014-02-09 06:45:00,73.6,72.1,30.10,ESE,119,0.0,0.0,95,0.00,,,0.00,Wunderground v.1.15,2014-02-09 11:45:00,
2014-02-09 06:51:00,73.6,72.1,30.10,ESE,119,0.0,0.0,95,0.00,,,0.00,Wunderground v.1.15,2014-02-09 11:51:00,
2014-02-09 06:57:00,73.7,72.2,30.10,ESE,120,0.0,0.0,95,0.00,,,0.00,Wunderground v.1.15,2014-02-09 11:57:00,
2014-02-09 07:02:00,73.7,72.2,30.10,ESE,120,0.0,0.0,95,0.00,,,0.00,Wunderground v.1.15,2014-02-09 12:02:00,
2014-02-09 07:08:00,73.7,72.2,30.10,ESE,119,0.0,0.0,95,0.00,,,0.00,Wunderground v.1.15,2014-02-09 12:08:00,
2014-02-09 07:14:00,73.7,72.2,30.10,ESE,119,0.0,0.0,95,0.00,,,0.00,Wunderground v.1.15,2014-02-09 12:14:00,
2014-02-09 07:19:00,73.7,72.2,30.10,ESE,120,0.0,0.0,95,0.00,,,0.00,Wunderground v.1.15,2014-02-09 12:19:00,
2014-02-09 07:24:00,73.8,72.3,30.10,ESE,119,0.0,0.0,95,0.00,,,0.00,Wunderground v.1.15,2014-02-09 12:24:00,
2014-02-09 07:29:00,73.9,72.4,30.10,ESE,119,0.0,0.0,95,0.00,,,0.00,Wunderground v.1.15,2014-02-09 12:29:00,
2014-02-09 07:34:00,74.0,72.5,30.11,ESE,120,0.0,0.0,95,0.00,,,0.00,Wunderground v.1.15,2014-02-09 12:34:00,
2014-02-09 07:39:00,74.2,72.7,30.11,ESE,119,0.0,0.0,95,0.00,,,0.00,Wunderground v.1.15,2014-02-09 12:39:00,
2014-02-09 07:44:00,74.7,73.2,30.11,ESE,120,0.0,0.0,95,0.00,,,0.00,Wunderground v.1.15,2014-02-09 12:44:00,
2014-02-09 07:50:00,75.3,73.8,30.11,ESE,119,0.0,0.0,95,0.00,,,0.00,Wunderground v.1.15,2014-02-09 12:50:00,
2014-02-09 07:56:00,75.9,74.0,30.11,ESE,120,0.0,0.0,94,0.00,,,0.00,Wunderground v.1.15,2014-02-09 12:56:00,
2014-02-09 08:02:00,76.5,74.3,30.11,ESE,120,0.0,0.0,93,0.00,,,0.00,Wunderground v.1.15,2014-02-09 13:02:00,
2014-02-09 08:08:00,77.1,74.6,30.11,ESE,116,0.0,0.0,92,0.00,,,0.00,Wunderground v.1.15,2014-02-09 13:08:00,
2014-02-09 08:13:00,77.5,74.7,30.11,ESE,113,0.0,0.0,91,0.00,,,0.00,Wunderground v.1.15,2014-02-09 13:13:00,
2014-02-09 08:19:00,77.7,74.5,30.11,ESE,113,0.0,0.0,90,0.00,,,0.00,Wunderground v.1.15,2014-02-09 13:19:00,
2014-02-09 08:24:00,78.2,75.0,30.11,East,101,0.0,0.0,90,0.00,,,0.00,Wunderground v.1.15,2014-02-09 13:24:00,
2014-02-09 08:30:00,78.9,75.4,30.11,East,100,0.0,0.0,89,0.00,,,0.00,Wunderground v.1.15,2014-02-09 13:30:00,
2014-02-09 08:36:00,79.4,75.2,30.11,East,97,0.0,0.0,87,0.00,,,0.00,Wunderground v.1.15,2014-02-09 13:36:00,
2014-02-09 08:42:00,79.8,75.2,30.12,East,94,0.0,0.0,86,0.00,,,0.00,Wunderground v.1.15,2014-02-09 13:42:00,
2014-02-09 08:47:00,80.1,75.2,30.12,East,84,1.0,4.0,85,0.00,,,0.00,Wunderground v.1.15,2014-02-09 13:47:00,
2014-02-09 08:53:00,80.3,75.4,30.12,East,83,1.0,3.0,85,0.00,,,0.00,Wunderground v.1.15,2014-02-09 13:53:00,
2014-02-09 08:59:00,81.0,75.3,30.12,East,88,0.0,3.0,83,0.00,,,0.00,Wunderground v.1.15,2014-02-09 13:59:00,
2014-02-09 09:04:00,81.3,74.9,30.12,East,92,1.0,4.0,81,0.00,,,0.00,Wunderground v.1.15,2014-02-09 14:04:00,
2014-02-09 09:10:00,81.6,75.2,30.12,East,93,2.0,2.0,81,0.00,,,0.00,Wunderground v.1.15,2014-02-09 14:10:00,
2014-02-09 09:17:00,81.8,74.3,30.12,ENE,75,3.0,4.0,78,0.00,,,0.00,Wunderground v.1.15,2014-02-09 14:17:00,
2014-02-09 09:23:00,81.8,74.3,30.13,East,88,4.0,7.0,78,0.00,,,0.00,Wunderground v.1.15,2014-02-09 14:23:00,
2014-02-09 09:29:00,82.1,74.2,30.13,East,93,4.0,7.0,77,0.00,,,0.00,Wunderground v.1.15,2014-02-09 14:29:00,
2014-02-09 09:35:00,82.4,74.5,30.13,East,91,3.0,7.0,77,0.00,,,0.00,Wunderground v.1.15,2014-02-09 14:35:00,
2014-02-09 09:41:00,82.7,74.8,30.13,East,98,2.0,2.0,77,0.00,,,0.00,Wunderground v.1.15,2014-02-09 14:41:00,
2014-02-09 09:47:00,82.9,74.2,30.14,ENE,64,2.0,5.0,75,0.00,,,0.00,Wunderground v.1.15,2014-02-09 14:47:00,
2014-02-09 09:53:00,82.9,74.6,30.14,East,94,3.0,7.0,76,0.00,,,0.00,Wunderground v.1.15,2014-02-09 14:53:00,
2014-02-09 09:58:00,83.0,74.6,30.13,ENE,68,3.0,7.0,76,0.00,,,0.00,Wunderground v.1.15,2014-02-09 14:58:00,
2014-02-09 10:04:00,83.2,74.8,30.14,East,89,2.0,3.0,76,0.00,,,0.00,Wunderground v.1.15,2014-02-09 15:04:00,
2014-02-09 10:09:00,83.5,74.7,30.14,ESE,107,2.0,5.0,75,0.00,,,0.00,Wunderground v.1.15,2014-02-09 15:09:00,
2014-02-09 10:14:00,83.5,74.7,30.14,East,96,2.0,4.0,75,0.00,,,0.00,Wunderground v.1.15,2014-02-09 15:14:00,
2014-02-09 10:20:00,83.7,74.9,30.14,East,94,2.0,2.0,75,0.00,,,0.00,Wunderground v.1.15,2014-02-09 15:20:00,
2014-02-09 10:26:00,84.0,74.8,30.14,ESE,118,1.0,7.0,74,0.00,,,0.00,Wunderground v.1.15,2014-02-09 15:26:00,
2014-02-09 10:32:00,84.3,75.1,30.13,SE,130,1.0,1.0,74,0.00,,,0.00,Wunderground v.1.15,2014-02-09 15:32:00,
2014-02-09 10:38:00,84.2,74.6,30.13,East,96,1.0,6.0,73,0.00,,,0.00,Wunderground v.1.15,2014-02-09 15:38:00,
2014-02-09 10:43:00,84.1,74.5,30.13,SSE,157,1.0,1.0,73,0.00,,,0.00,Wunderground v.1.15,2014-02-09 15:43:00,
2014-02-09 10:48:00,84.3,74.7,30.13,ESE,117,1.0,3.0,73,0.00,,,0.00,Wunderground v.1.15,2014-02-09 15:48:00,
2014-02-09 10:54:00,84.5,74.5,30.13,SE,130,1.0,1.0,72,0.00,,,0.00,Wunderground v.1.15,2014-02-09 15:54:00,
2014-02-09 11:00:00,84.8,75.2,30.13,ESE,115,1.0,1.0,73,0.00,,,0.00,Wunderground v.1.15,2014-02-09 16:00:00,
2014-02-09 11:05:00,84.8,75.6,30.13,SSE,148,1.0,1.0,74,0.00,,,0.00,Wunderground v.1.15,2014-02-09 16:05:00,
2014-02-09 11:11:00,84.9,76.1,30.13,SE,136,1.0,1.0,75,0.00,,,0.00,Wunderground v.1.15,2014-02-09 16:11:00,
2014-02-09 11:17:00,84.4,76.0,30.13,ESE,106,2.0,5.0,76,0.00,,,0.00,Wunderground v.1.15,2014-02-09 16:17:00,
2014-02-09 11:23:00,84.3,75.9,30.13,ESE,120,2.0,5.0,76,0.00,,,0.00,Wunderground v.1.15,2014-02-09 16:23:00,
2014-02-09 11:28:00,84.4,76.4,30.12,ESE,123,2.0,5.0,77,0.00,,,0.00,Wunderground v.1.15,2014-02-09 16:28:00,
2014-02-09 11:33:00,84.6,75.4,30.12,SE,126,1.0,2.0,74,0.00,,,0.00,Wunderground v.1.15,2014-02-09 16:33:00,
2014-02-09 11:38:00,84.9,76.5,30.12,ESE,113,1.0,2.0,76,0.00,,,0.00,Wunderground v.1.15,2014-02-09 16:38:00,
2014-02-09 11:43:00,85.2,76.4,30.12,East,94,2.0,4.0,75,0.00,,,0.00,Wunderground v.1.15,2014-02-09 16:43:00,
2014-02-09 11:48:00,85.5,76.3,30.12,ESE,110,2.0,6.0,74,0.00,,,0.00,Wunderground v.1.15,2014-02-09 16:48:00,
2014-02-09 11:53:00,85.3,76.5,30.12,ESE,118,1.0,3.0,75,0.00,,,0.00,Wunderground v.1.15,2014-02-09 16:53:00,
2014-02-09 11:59:00,85.2,76.0,30.11,SE,145,0.0,3.0,74,0.00,,,0.00,Wunderground v.1.15,2014-02-09 16:59:00,
2014-02-09 12:04:00,85.4,76.2,30.11,ESE,113,0.0,0.0,74,0.00,,,0.00,Wunderground v.1.15,2014-02-09 17:04:00,
2014-02-09 12:09:00,85.5,75.9,30.10,SSE,150,1.0,3.0,73,0.00,,,0.00,Wunderground v.1.15,2014-02-09 17:09:00,
2014-02-09 12:15:00,85.5,75.9,30.09,SE,134,1.0,3.0,73,0.00,,,0.00,Wunderground v.1.15,2014-02-09 17:15:00,
2014-02-09 12:21:00,85.6,75.9,30.09,ESE,110,1.0,1.0,73,0.00,,,0.00,Wunderground v.1.15,2014-02-09 17:21:00,
2014-02-09 12:26:00,85.8,76.1,30.09,SE,145,1.0,4.0,73,0.00,,,0.00,Wunderground v.1.15,2014-02-09 17:26:00,
2014-02-09 12:32:00,86.0,76.3,30.09,ESE,112,1.0,1.0,73,0.00,,,0.00,Wunderground v.1.15,2014-02-09 17:32:00,
2014-02-09 12:38:00,85.8,77.0,30.09,SSE,150,1.0,1.0,75,0.00,,,0.00,Wunderground v.1.15,2014-02-09 17:38:00,
2014-02-09 12:43:00,86.0,76.3,30.09,ESE,108,1.0,3.0,73,0.00,,,0.00,Wunderground v.1.15,2014-02-09 17:43:00,
2014-02-09 12:48:00,85.9,76.2,30.09,ESE,119,1.0,3.0,73,0.00,,,0.00,Wunderground v.1.15,2014-02-09 17:48:00,
2014-02-09 12:53:00,85.8,76.1,30.09,ESE,103,1.0,3.0,73,0.00,,,0.00,Wunderground v.1.15,2014-02-09 17:53:00,
2014-02-09 12:58:00,85.8,74.9,30.09,ESE,113,1.0,3.0,70,0.00,,,0.00,Wunderground v.1.15,2014-02-09 17:58:00,
2014-02-09 13:03:00,85.2,75.6,30.08,East,86,2.0,7.0,73,0.00,,,0.00,Wunderground v.1.15,2014-02-09 18:03:00,
2014-02-09 13:09:00,85.2,76.0,30.08,SE,136,2.0,7.0,74,0.00,,,0.00,Wunderground v.1.15,2014-02-09 18:09:00,
2014-02-09 13:14:00,85.7,75.2,30.08,SE,134,1.0,2.0,71,0.00,,,0.00,Wunderground v.1.15,2014-02-09 18:14:00,
2014-02-09 13:19:00,86.5,76.0,30.08,SSE,152,0.0,2.0,71,0.00,,,0.00,Wunderground v.1.15,2014-02-09 18:19:00,
2014-02-09 13:24:00,86.7,74.0,30.07,ESE,111,0.0,3.0,66,0.00,,,0.00,Wunderground v.1.15,2014-02-09 18:24:00,
2014-02-09 13:30:00,86.5,75.1,30.07,SSE,148,1.0,1.0,69,0.00,,,0.00,Wunderground v.1.15,2014-02-09 18:30:00,
2014-02-09 13:35:00,86.0,75.5,30.07,East,94,1.0,5.0,71,0.00,,,0.00,Wunderground v.1.15,2014-02-09 18:35:00,
2014-02-09 13:40:00,85.9,76.2,30.07,SSE,147,2.0,2.0,73,0.00,,,0.00,Wunderground v.1.15,2014-02-09 18:40:00,
2014-02-09 13:45:00,86.7,76.6,30.07,ESE,111,1.0,6.0,72,0.00,,,0.00,Wunderground v.1.15,2014-02-09 18:45:00,
2014-02-09 13:50:00,86.2,75.7,30.07,ESE,119,2.0,2.0,71,0.00,,,0.00,Wunderground v.1.15,2014-02-09 18:50:00,
2014-02-09 13:56:00,86.5,76.0,30.06,ESE,111,1.0,7.0,71,0.00,,,0.00,Wunderground v.1.15,2014-02-09 18:56:00,
2014-02-09 14:02:00,86.7,75.7,30.06,ESE,107,1.0,1.0,70,0.00,,,0.00,Wunderground v.1.15,2014-02-09 19:02:00,
2014-02-09 14:08:00,87.1,76.1,30.06,SE,140,1.0,4.0,70,0.00,,,0.00,Wunderground v.1.15,2014-02-09 19:08:00,
2014-02-09 14:13:00,87.3,75.0,30.06,SE,134,1.0,8.0,67,0.00,,,0.00,Wunderground v.1.15,2014-02-09 19:13:00,
2014-02-09 14:18:00,86.6,75.2,30.05,ESE,113,2.0,8.0,69,0.00,,,0.00,Wunderground v.1.15,2014-02-09 19:18:00,
2014-02-09 14:24:00,86.9,75.9,30.05,SSE,159,1.0,2.0,70,0.00,,,0.00,Wunderground v.1.15,2014-02-09 19:24:00,
2014-02-09 14:29:00,87.1,75.3,30.05,ESE,103,1.0,2.0,68,0.00,,,0.00,Wunderground v.1.15,2014-02-09 19:29:00,
2014-02-09 14:34:00,86.8,75.0,30.05,East,90,1.0,6.0,68,0.00,,,0.00,Wunderground v.1.15,2014-02-09 19:34:00,
2014-02-09 14:39:00,86.4,74.6,30.05,ESE,113,1.0,6.0,68,0.00,,,0.00,Wunderground v.1.15,2014-02-09 19:39:00,
2014-02-09 14:44:00,86.1,74.3,30.05,ESE,122,1.0,4.0,68,0.00,,,0.00,Wunderground v.1.15,2014-02-09 19:44:00,
2014-02-09 14:49:00,85.9,75.4,30.05,SE,144,1.0,4.0,71,0.00,,,0.00,Wunderground v.1.15,2014-02-09 19:49:00,
2014-02-09 14:55:00,86.2,75.7,30.05,East,83,0.0,3.0,71,0.00,,,0.00,Wunderground v.1.15,2014-02-09 19:55:00,
2014-02-09 15:02:00,85.3,75.2,30.05,ESE,119,1.0,1.0,72,0.00,,,0.00,Wunderground v.1.15,2014-02-09 20:02:00,
2014-02-09 15:08:00,85.1,75.1,30.05,SE,134,1.0,1.0,72,0.00,,,0.00,Wunderground v.1.15,2014-02-09 20:08:00,
2014-02-09 15:13:00,85.2,74.3,30.05,East,84,1.0,3.0,70,0.00,,,0.00,Wunderground v.1.15,2014-02-09 20:13:00,
2014-02-09 15:19:00,84.7,74.7,30.05,ESE,102,1.0,4.0,72,0.00,,,0.00,Wunderground v.1.15,2014-02-09 20:19:00,
2014-02-09 15:25:00,84.2,73.8,30.05,East,80,1.0,4.0,71,0.00,,,0.00,Wunderground v.1.15,2014-02-09 20:25:00,
2014-02-09 15:30:00,84.4,74.4,30.05,East,98,1.0,1.0,72,0.00,,,0.00,Wunderground v.1.15,2014-02-09 20:30:00,
2014-02-09 15:35:00,84.5,74.5,30.05,East,100,1.0,1.0,72,0.00,,,0.00,Wunderground v.1.15,2014-02-09 20:35:00,
2014-02-09 15:41:00,84.4,74.8,30.04,ENE,76,1.0,4.0,73,0.00,,,0.00,Wunderground v.1.15,2014-02-09 20:41:00,
2014-02-09 15:48:00,84.6,74.6,30.04,SE,129,1.0,4.0,72,0.00,,,0.00,Wunderground v.1.15,2014-02-09 20:48:00,
2014-02-09 15:54:00,85.3,74.8,30.04,SE,128,0.0,1.0,71,0.00,,,0.00,Wunderground v.1.15,2014-02-09 20:54:00,
2014-02-09 16:00:00,85.1,74.6,30.04,ESE,114,0.0,0.0,71,0.00,,,0.00,Wunderground v.1.15,2014-02-09 21:00:00,
2014-02-09 16:06:00,85.1,75.5,30.04,ESE,107,0.0,3.0,73,0.00,,,0.00,Wunderground v.1.15,2014-02-09 21:06:00,
2014-02-09 16:11:00,84.9,74.4,30.04,East,101,1.0,8.0,71,0.00,,,0.00,Wunderground v.1.15,2014-02-09 21:11:00,
2014-02-09 16:17:00,84.2,74.6,30.04,ESE,107,1.0,8.0,73,0.00,,,0.00,Wunderground v.1.15,2014-02-09 21:17:00,
2014-02-09 16:23:00,84.0,74.0,30.04,ESE,109,1.0,3.0,72,0.00,,,0.00,Wunderground v.1.15,2014-02-09 21:23:00,
2014-02-09 16:29:00,84.3,74.7,30.04,ESE,108,0.0,3.0,73,0.00,,,0.00,Wunderground v.1.15,2014-02-09 21:29:00,
2014-02-09 16:34:00,84.4,74.4,30.04,SSE,149,0.0,2.0,72,0.00,,,0.00,Wunderground v.1.15,2014-02-09 21:34:00,
2014-02-09 16:39:00,84.8,74.3,30.05,SE,140,0.0,6.0,71,0.00,,,0.00,Wunderground v.1.15,2014-02-09 21:39:00,
2014-02-09 16:44:00,84.8,74.8,30.05,SE,140,0.0,0.0,72,0.00,,,0.00,Wunderground v.1.15,2014-02-09 21:44:00,
2014-02-09 16:50:00,84.3,73.9,30.05,ESE,115,0.0,0.0,71,0.00,,,0.00,Wunderground v.1.15,2014-02-09 21:50:00,
2014-02-09 16:56:00,84.2,74.6,30.05,East,98,0.0,0.0,73,0.00,,,0.00,Wunderground v.1.15,2014-02-09 21:56:00,
2014-02-09 17:02:00,84.2,74.6,30.05,ESE,107,0.0,0.0,73,0.00,,,0.00,Wunderground v.1.15,2014-02-09 22:02:00,
2014-02-09 17:08:00,83.6,73.6,30.06,East,88,0.0,1.0,72,0.00,,,0.00,Wunderground v.1.15,2014-02-09 22:08:00,
2014-02-09 17:13:00,83.2,74.0,30.06,ESE,112,1.0,3.0,74,0.00,,,0.00,Wunderground v.1.15,2014-02-09 22:13:00,
2014-02-09 17:19:00,83.2,74.4,30.06,ESE,111,0.0,3.0,75,0.00,,,0.00,Wunderground v.1.15,2014-02-09 22:19:00,
2014-02-09 17:24:00,82.9,74.2,30.06,East,95,0.0,3.0,75,0.00,,,0.00,Wunderground v.1.15,2014-02-09 22:24:00,
2014-02-09 17:29:00,82.7,74.0,30.07,East,94,0.0,3.0,75,0.00,,,0.00,Wunderground v.1.15,2014-02-09 22:29:00,
2014-02-09 17:34:00,82.1,73.8,30.07,East,80,0.0,0.0,76,0.00,,,0.00,Wunderground v.1.15,2014-02-09 22:34:00,
2014-02-09 17:39:00,81.7,73.8,30.07,East,79,0.0,0.0,77,0.00,,,0.00,Wunderground v.1.15,2014-02-09 22:39:00,
2014-02-09 17:45:00,81.2,73.7,30.07,ENE,78,0.0,0.0,78,0.00,,,0.00,Wunderground v.1.15,2014-02-09 22:45:00,
2014-02-09 17:51:00,80.8,73.7,30.07,ENE,72,0.0,0.0,79,0.00,,,0.00,Wunderground v.1.15,2014-02-09 22:51:00,
2014-02-09 17:56:00,80.4,73.7,30.07,ENE,72,0.0,0.0,80,0.00,,,0.00,Wunderground v.1.15,2014-02-09 22:56:00,
2014-02-09 18:02:00,80.0,73.6,30.07,ENE,67,1.0,3.0,81,0.00,,,0.00,Wunderground v.1.15,2014-02-09 23:02:00,
2014-02-09 18:08:00,79.7,73.7,30.07,ENE,67,1.0,3.0,82,0.00,,,0.00,Wunderground v.1.15,2014-02-09 23:08:00,
2014-02-09 18:13:00,79.5,73.5,30.07,ENE,67,0.0,1.0,82,0.00,,,0.00,Wunderground v.1.15,2014-02-09 23:13:00,
2014-02-09 18:19:00,79.1,73.5,30.07,ENE,67,0.0,1.0,83,0.00,,,0.00,Wunderground v.1.15,2014-02-09 23:19:00,
2014-02-09 18:24:00,78.9,73.7,30.07,ENE,65,0.0,0.0,84,0.00,,,0.00,Wunderground v.1.15,2014-02-09 23:24:00,
2014-02-09 18:29:00,78.6,73.4,30.07,ENE,66,0.0,0.0,84,0.00,,,0.00,Wunderground v.1.15,2014-02-09 23:29:00,
2014-02-09 18:34:00,78.4,73.5,30.07,ENE,68,0.0,1.0,85,0.00,,,0.00,Wunderground v.1.15,2014-02-09 23:34:00,
2014-02-09 18:39:00,78.2,73.3,30.07,ENE,67,0.0,1.0,85,0.00,,,0.00,Wunderground v.1.15,2014-02-09 23:39:00,
2014-02-09 18:45:00,77.9,73.4,30.07,ENE,67,0.0,0.0,86,0.00,,,0.00,Wunderground v.1.15,2014-02-09 23:45:00,
2014-02-09 18:51:00,77.8,73.3,30.07,ENE,67,0.0,0.0,86,0.00,,,0.00,Wunderground v.1.15,2014-02-09 23:51:00,
2014-02-09 18:56:00,77.8,73.6,30.07,ENE,68,0.0,0.0,87,0.00,,,0.00,Wunderground v.1.15,2014-02-09 23:56:00,
2014-02-09 19:02:00,77.7,73.5,30.08,ENE,67,0.0,0.0,87,0.00,,,0.00,Wunderground v.1.15,2014-02-10 00:02:00,
2014-02-09 19:08:00,77.7,73.5,30.08,ENE,67,0.0,0.0,87,0.00,,,0.00,Wunderground v.1.15,2014-02-10 00:08:00,
2014-02-09 19:13:00,77.6,73.4,30.08,ENE,67,0.0,0.0,87,0.00,,,0.00,Wunderground v.1.15,2014-02-10 00:13:00,
2014-02-09 19:18:00,77.6,73.4,30.08,ENE,67,0.0,0.0,87,0.00,,,0.00,Wunderground v.1.15,2014-02-10 00:18:00,
2014-02-09 19:24:00,77.5,73.3,30.08,ENE,67,0.0,0.0,87,0.00,,,0.00,Wunderground v.1.15,2014-02-10 00:24:00,
2014-02-09 19:29:00,77.4,73.2,30.08,ENE,67,0.0,0.0,87,0.00,,,0.00,Wunderground v.1.15,2014-02-10 00:29:00,
2014-02-09 19:35:00,77.2,73.0,30.08,ENE,67,0.0,0.0,87,0.00,,,0.00,Wunderground v.1.15,2014-02-10 00:35:00,
2014-02-09 19:40:00,77.1,73.3,30.08,ENE,67,0.0,0.0,88,0.00,,,0.00,Wunderground v.1.15,2014-02-10 00:40:00,
2014-02-09 19:45:00,77.0,73.2,30.08,ENE,67,0.0,0.0,88,0.00,,,0.00,Wunderground v.1.15,2014-02-10 00:45:00,
2014-02-09 19:51:00,76.8,73.3,30.09,ENE,67,0.0,0.0,89,0.00,,,0.00,Wunderground v.1.15,2014-02-10 00:51:00,
2014-02-09 19:57:00,76.7,73.2,30.09,ENE,67,0.0,0.0,89,0.00,,,0.00,Wunderground v.1.15,2014-02-10 00:57:00,
2014-02-09 20:02:00,76.5,73.3,30.09,ENE,67,0.0,0.0,90,0.00,,,0.00,Wunderground v.1.15,2014-02-10 01:02:00,
2014-02-09 20:08:00,76.4,73.2,30.09,ENE,67,0.0,0.0,90,0.00,,,0.00,Wunderground v.1.15,2014-02-10 01:08:00,
2014-02-09 20:13:00,76.2,73.1,30.10,ENE,67,0.0,0.0,90,0.00,,,0.00,Wunderground v.1.15,2014-02-10 01:13:00,
2014-02-09 20:19:00,76.2,73.1,30.10,ENE,67,0.0,0.0,90,0.00,,,0.00,Wunderground v.1.15,2014-02-10 01:19:00,
2014-02-09 20:25:00,76.1,72.6,30.10,ENE,67,0.0,0.0,89,0.00,,,0.00,Wunderground v.1.15,2014-02-10 01:25:00,
2014-02-09 20:30:00,76.0,72.5,30.10,ENE,67,0.0,0.0,89,0.00,,,0.00,Wunderground v.1.15,2014-02-10 01:30:00,
2014-02-09 20:36:00,75.8,72.7,30.10,ENE,67,0.0,0.0,90,0.00,,,0.00,Wunderground v.1.15,2014-02-10 01:36:00,
2014-02-09 20:41:00,75.7,72.6,30.10,ENE,67,0.0,0.0,90,0.00,,,0.00,Wunderground v.1.15,2014-02-10 01:41:00,
2014-02-09 20:47:00,75.6,72.5,30.10,ENE,67,0.0,0.0,90,0.00,,,0.00,Wunderground v.1.15,2014-02-10 01:47:00,
2014-02-09 20:53:00,75.5,72.4,30.10,ENE,67,0.0,0.0,90,0.00,,,0.00,Wunderground v.1.15,2014-02-10 01:53:00,
2014-02-09 20:58:00,75.5,72.4,30.10,ENE,67,0.0,0.0,90,0.00,,,0.00,Wunderground v.1.15,2014-02-10 01:58:00,
2014-02-09 21:04:00,75.4,72.3,30.10,ENE,67,0.0,0.0,90,0.00,,,0.00,Wunderground v.1.15,2014-02-10 02:04:00,
2014-02-09 21:09:00,75.3,72.2,30.11,ENE,67,0.0,0.0,90,0.00,,,0.00,Wunderground v.1.15,2014-02-10 02:09:00,
2014-02-09 21:15:00,75.2,72.1,30.11,ENE,67,0.0,0.0,90,0.00,,,0.00,Wunderground v.1.15,2014-02-10 02:15:00,
2014-02-09 21:20:00,75.1,72.3,30.11,ENE,67,0.0,0.0,91,0.00,,,0.00,Wunderground v.1.15,2014-02-10 02:20:00,
2014-02-09 21:25:00,75.0,72.2,30.11,ENE,67,0.0,0.0,91,0.00,,,0.00,Wunderground v.1.15,2014-02-10 02:25:00,
2014-02-09 21:30:00,75.0,72.5,30.11,ENE,69,0.0,0.0,92,0.00,,,0.00,Wunderground v.1.15,2014-02-10 02:30:00,
2014-02-09 21:36:00,74.9,72.4,30.11,ENE,69,0.0,0.0,92,0.00,,,0.00,Wunderground v.1.15,2014-02-10 02:36:00,
2014-02-09 21:41:00,74.9,72.4,30.11,ENE,69,0.0,0.0,92,0.00,,,0.00,Wunderground v.1.15,2014-02-10 02:41:00,
2014-02-09 21:47:00,74.8,72.0,30.11,ENE,69,0.0,0.0,91,0.00,,,0.00,Wunderground v.1.15,2014-02-10 02:47:00,
2014-02-09 21:52:00,74.8,72.0,30.11,ENE,69,0.0,0.0,91,0.00,,,0.00,Wunderground v.1.15,2014-02-10 02:52:00,
2014-02-09 21:58:00,74.6,71.8,30.11,ENE,69,0.0,0.0,91,0.00,,,0.00,Wunderground v.1.15,2014-02-10 02:58:00,
2014-02-09 22:04:00,74.6,71.8,30.11,ENE,69,0.0,0.0,91,0.00,,,0.00,Wunderground v.1.15,2014-02-10 03:04:00,
2014-02-09 22:09:00,74.4,71.6,30.11,ENE,69,0.0,0.0,91,0.00,,,0.00,Wunderground v.1.15,2014-02-10 03:09:00,
2014-02-09 22:15:00,74.2,71.7,30.11,ENE,69,0.0,0.0,92,0.00,,,0.00,Wunderground v.1.15,2014-02-10 03:15:00,
2014-02-09 22:21:00,74.1,71.6,30.11,ENE,68,0.0,0.0,92,0.00,,,0.00,Wunderground v.1.15,2014-02-10 03:21:00,
2014-02-09 22:27:00,74.1,71.6,30.11,ENE,68,0.0,0.0,92,0.00,,,0.00,Wunderground v.1.15,2014-02-10 03:27:00,
2014-02-09 22:33:00,74.0,71.8,30.11,ENE,69,0.0,0.0,93,0.00,,,0.00,Wunderground v.1.15,2014-02-10 03:33:00,
2014-02-09 22:38:00,74.0,71.5,30.11,ENE,69,0.0,0.0,92,0.00,,,0.00,Wunderground v.1.15,2014-02-10 03:38:00,
2014-02-09 22:43:00,74.0,71.8,30.11,ENE,69,0.0,0.0,93,0.00,,,0.00,Wunderground v.1.15,2014-02-10 03:43:00,
2014-02-09 22:49:00,74.0,71.8,30.11,ENE,68,0.0,0.0,93,0.00,,,0.00,Wunderground v.1.15,2014-02-10 03:49:00,
2014-02-09 22:55:00,74.1,71.9,30.11,ENE,69,0.0,0.0,93,0.00,,,0.00,Wunderground v.1.15,2014-02-10 03:55:00,
2014-02-09 23:00:00,74.2,71.7,30.11,ENE,68,0.0,0.0,92,0.00,,,0.00,Wunderground v.1.15,2014-02-10 04:00:00,
2014-02-09 23:06:00,74.2,71.7,30.11,ENE,69,0.0,0.0,92,0.00,,,0.00,Wunderground v.1.15,2014-02-10 04:06:00,
2014-02-09 23:11:00,74.3,71.8,30.11,ENE,69,0.0,0.0,92,0.00,,,0.00,Wunderground v.1.15,2014-02-10 04:11:00,
2014-02-09 23:17:00,74.2,71.7,30.11,ENE,69,0.0,0.0,92,0.00,,,0.00,Wunderground v.1.15,2014-02-10 04:17:00,
2014-02-09 23:22:00,74.1,71.6,30.11,ENE,69,0.0,0.0,92,0.00,,,0.00,Wunderground v.1.15,2014-02-10 04:22:00,
2014-02-09 23:28:00,74.0,71.5,30.11,ENE,68,0.0,0.0,92,0.00,,,0.00,Wunderground v.1.15,2014-02-10 04:28:00,
2014-02-09 23:33:00,73.9,71.4,30.11,ENE,69,0.0,0.0,92,0.00,,,0.00,Wunderground v.1.15,2014-02-10 04:33:00,
2014-02-09 23:38:00,73.9,71.4,30.11,ENE,69,0.0,0.0,92,0.00,,,0.00,Wunderground v.1.15,2014-02-10 04:38:00,
2014-02-09 23:43:00,73.8,71.3,30.11,ENE,68,0.0,0.0,92,0.00,,,0.00,Wunderground v.1.15,2014-02-10 04:43:00,
2014-02-09 23:48:00,73.9,71.4,30.11,ENE,69,0.0,0.0,92,0.00,,,0.00,Wunderground v.1.15,2014-02-10 04:48:00,
2014-02-09 23:53:00,73.9,71.7,30.11,ENE,68,0.0,0.0,93,0.00,,,0.00,Wunderground v.1.15,2014-02-10 04:53:00,
2014-02-09 23:59:00,73.9,71.4,30.11,ENE,68,0.0,0.0,92,0.00,,,0.00,Wunderground v.1.15,2014-02-10 04:59:00,